createdAt,value
2019-01-24T00:01:06.367Z,33.50
2019-01-24T00:06:12.540Z,34.40
2019-01-24T00:11:18.613Z,35.53
2019-01-24T00:16:24.761Z,34.87
2019-01-24T00:21:30.982Z,35.63
2019-01-24T00:26:37.072Z,32.67
2019-01-24T00:31:43.119Z,36.77
2019-01-24T00:36:49.296Z,36.03
2019-01-24T00:41:55.346Z,34.87
2019-01-24T00:47:01.473Z,34.30
2019-01-24T00:52:07.537Z,35.37
2019-01-24T00:57:13.685Z,34.27
2019-01-24T01:02:19.865Z,33.00
2019-01-24T01:07:26.072Z,32.93
2019-01-24T01:12:32.119Z,34.07
2019-01-24T01:17:38.208Z,33.17
2019-01-24T01:22:44.460Z,35.10
2019-01-24T01:27:50.595Z,33.47
2019-01-24T01:32:56.640Z,36.30
2019-01-24T01:38:02.799Z,34.43
2019-01-24T01:43:08.868Z,34.30
2019-01-24T01:48:14.940Z,33.40
2019-01-24T01:53:21.026Z,33.40
2019-01-24T01:58:27.143Z,33.00
2019-01-24T02:03:33.267Z,33.43
2019-01-24T02:08:39.327Z,35.23
2019-01-24T02:13:45.512Z,34.03
2019-01-24T02:18:51.539Z,34.37
2019-01-24T02:23:57.590Z,34.37
2019-01-24T02:29:03.836Z,34.10
2019-01-24T02:34:10.020Z,34.63
2019-01-24T02:39:16.113Z,32.80
2019-01-24T02:44:22.088Z,33.50
2019-01-24T02:49:28.253Z,33.87
2019-01-24T02:54:34.430Z,32.40
2019-01-24T02:59:40.616Z,32.93
2019-01-24T03:04:46.620Z,32.93
2019-01-24T03:09:52.551Z,31.27
2019-01-24T03:14:58.669Z,32.80
2019-01-24T03:20:04.987Z,32.87
2019-01-24T03:25:11.318Z,33.53
2019-01-24T03:30:19.234Z,32.67
2019-01-24T03:35:26.972Z,33.40
2019-01-24T03:40:33.090Z,32.03
2019-01-24T03:45:39.074Z,32.60
2019-01-24T03:50:45.159Z,40.97
2019-01-24T03:55:51.636Z,40.13
2019-01-24T04:00:57.705Z,37.83
2019-01-24T04:06:03.686Z,36.63
2019-01-24T04:11:09.689Z,36.50
2019-01-24T04:16:15.803Z,34.23
2019-01-24T04:21:23.340Z,34.27
2019-01-24T04:26:29.490Z,35.93
2019-01-24T04:31:35.462Z,35.60
2019-01-24T04:36:41.557Z,35.13
2019-01-24T04:41:47.636Z,35.23
2019-01-24T04:46:53.803Z,34.87
2019-01-24T04:51:59.902Z,35.17
2019-01-24T04:57:05.857Z,36.97
2019-01-24T05:02:11.836Z,35.20
2019-01-24T05:07:18.002Z,37.20
2019-01-24T05:12:24.069Z,37.50
2019-01-24T05:17:30.142Z,34.10
2019-01-24T05:22:36.364Z,36.53
2019-01-24T05:27:42.496Z,34.83
2019-01-24T05:32:48.663Z,33.70
2019-01-24T05:37:54.663Z,38.30
2019-01-24T05:43:00.709Z,35.07
2019-01-24T05:48:07.107Z,33.87
2019-01-24T05:53:13.184Z,36.70
2019-01-24T05:58:19.276Z,34.20
2019-01-24T06:03:25.304Z,35.47
2019-01-24T06:08:31.291Z,34.30
2019-01-24T06:13:37.491Z,34.57
2019-01-24T06:18:43.555Z,36.17
2019-01-24T06:23:49.541Z,38.47
2019-01-24T06:28:55.641Z,33.97
2019-01-24T06:34:01.912Z,35.73
2019-01-24T06:39:09.740Z,36.27
2019-01-24T06:44:15.925Z,33.77
2019-01-24T06:49:22.101Z,33.83
2019-01-24T06:54:28.238Z,34.57
2019-01-24T06:59:34.388Z,34.90
2019-01-24T07:04:40.569Z,36.20
2019-01-24T07:09:46.759Z,36.60
2019-01-24T07:14:53.131Z,37.77
2019-01-24T07:19:59.275Z,35.07
2019-01-24T07:25:07.204Z,33.50
2019-01-24T07:30:14.430Z,34.57
2019-01-24T07:35:20.662Z,35.33
2019-01-24T07:40:26.702Z,37.10
2019-01-24T07:45:38.329Z,35.90
2019-01-24T07:50:45.484Z,36.37
2019-01-24T07:55:51.681Z,36.37
2019-01-24T08:00:57.890Z,35.87
2019-01-24T08:06:08.981Z,36.77
2019-01-24T08:11:11.846Z,36.60
2019-01-24T08:16:17.964Z,34.73
2019-01-24T08:21:24.080Z,36.00
2019-01-24T08:26:30.263Z,33.07
2019-01-24T08:31:36.408Z,32.10
2019-01-24T08:36:42.399Z,28.47
2019-01-24T08:41:48.465Z,29.43
2019-01-24T08:46:54.554Z,26.87
2019-01-24T08:52:00.643Z,27.33
2019-01-24T08:57:06.679Z,27.80
2019-01-24T09:02:12.749Z,26.50
2019-01-24T09:07:18.959Z,25.60
2019-01-24T09:12:30.270Z,28.23
2019-01-24T09:17:32.636Z,27.80
2019-01-24T09:22:38.610Z,27.67
2019-01-24T09:27:44.777Z,27.87
2019-01-24T09:32:51.937Z,28.40
2019-01-24T09:37:58.048Z,29.27
2019-01-24T09:43:04.251Z,29.13
2019-01-24T09:48:10.400Z,28.37
2019-01-24T09:53:16.593Z,29.13
2019-01-24T09:58:22.775Z,26.77
2019-01-24T10:03:28.748Z,25.20
2019-01-24T10:08:34.832Z,26.80
2019-01-24T10:13:40.879Z,28.93
2019-01-24T10:18:46.968Z,24.30
2019-01-24T10:23:53.048Z,30.10
2019-01-24T10:28:59.207Z,139.17
2019-01-24T10:34:05.405Z,216.23
2019-01-24T10:39:11.580Z,61.13
2019-01-24T10:44:17.560Z,58.07
2019-01-24T10:49:23.639Z,29.90
2019-01-24T10:54:29.681Z,22.77
2019-01-24T10:59:35.776Z,35.70
2019-01-24T11:04:41.828Z,32.53
2019-01-24T11:09:47.991Z,32.93
2019-01-24T11:14:53.996Z,22.47
2019-01-24T11:19:59.957Z,27.73
2019-01-24T11:25:06.473Z,21.13
2019-01-24T11:30:15.043Z,48.63
2019-01-24T11:35:23.542Z,42.20
2019-01-24T11:40:29.680Z,34.73
2019-01-24T11:45:43.840Z,42.27
2019-01-24T11:50:51.152Z,23.10
2019-01-24T11:55:57.597Z,22.97
2019-01-24T12:01:03.677Z,20.60
2019-01-24T12:06:09.709Z,20.27
2019-01-24T12:11:15.744Z,30.43
2019-01-24T12:16:21.834Z,20.90
2019-01-24T12:21:27.998Z,21.07
2019-01-24T12:26:34.111Z,21.67
2019-01-24T12:31:40.056Z,22.80
2019-01-24T12:36:47.087Z,21.80
2019-01-24T12:41:54.516Z,21.60
2019-01-24T12:47:00.752Z,22.27
2019-01-24T12:52:06.914Z,20.53
2019-01-24T12:57:12.880Z,18.73
2019-01-24T13:02:18.861Z,23.37
2019-01-24T13:07:24.742Z,21.83
2019-01-24T13:12:30.899Z,20.87
2019-01-24T13:17:36.864Z,20.93
2019-01-24T13:22:43.075Z,20.70
2019-01-24T13:27:49.040Z,20.57
2019-01-24T13:32:55.012Z,20.20
2019-01-24T13:38:01.184Z,20.37
2019-01-24T13:43:07.895Z,20.47
2019-01-24T13:48:14.064Z,21.20
2019-01-24T13:53:19.850Z,19.77
2019-01-24T13:58:25.979Z,22.87
2019-01-24T14:04:04.541Z,22.20
2019-01-24T14:09:11.622Z,21.40
2019-01-24T14:14:17.754Z,20.53
2019-01-24T14:19:23.900Z,21.30
2019-01-24T14:24:29.838Z,20.17
2019-01-24T14:29:35.909Z,20.00
2019-01-24T14:34:43.059Z,21.67
2019-01-24T14:39:49.200Z,20.10
2019-01-24T14:44:55.257Z,20.87
2019-01-24T14:50:01.250Z,20.40
2019-01-24T14:55:08.164Z,19.07
2019-01-24T15:00:38.002Z,21.07
2019-01-24T15:05:44.028Z,19.70
2019-01-24T15:10:50.036Z,20.63
2019-01-24T15:15:56.042Z,21.80
2019-01-24T15:21:02.002Z,20.83
2019-01-24T15:26:08.092Z,21.87
2019-01-24T15:31:14.253Z,22.17
2019-01-24T15:36:20.399Z,20.97
2019-01-24T15:41:26.371Z,21.23
2019-01-24T15:46:32.359Z,22.77
2019-01-24T15:51:38.405Z,21.77
2019-01-24T15:56:44.456Z,21.40
2019-01-24T16:01:50.589Z,20.97
2019-01-24T16:06:56.644Z,22.30
2019-01-24T16:12:02.711Z,21.80
2019-01-24T16:17:08.941Z,22.37
2019-01-24T16:22:14.966Z,22.93
2019-01-24T16:27:21.056Z,22.87
2019-01-24T16:32:27.233Z,22.67
2019-01-24T16:37:33.297Z,21.77
2019-01-24T16:42:39.382Z,21.13
2019-01-24T16:47:45.437Z,22.43
2019-01-24T16:52:51.530Z,24.60
2019-01-24T16:57:57.713Z,22.53
2019-01-24T17:03:03.891Z,23.13
2019-01-24T17:08:16.303Z,23.20
2019-01-24T17:13:20.514Z,23.20
2019-01-24T17:18:26.625Z,22.90
2019-01-24T17:23:32.622Z,21.17
2019-01-24T17:28:38.835Z,22.43
2019-01-24T17:33:45.098Z,19.10
2019-01-24T17:38:51.089Z,23.07
2019-01-24T17:43:57.207Z,21.10
2019-01-24T17:49:03.366Z,21.40
2019-01-24T17:54:09.900Z,21.83
2019-01-24T17:59:16.033Z,21.10
2019-01-24T18:04:22.107Z,21.30
2019-01-24T18:09:28.170Z,22.03
2019-01-24T18:14:34.289Z,20.67
2019-01-24T18:19:40.309Z,20.47
2019-01-24T18:24:46.541Z,22.30
2019-01-24T18:29:52.672Z,21.20
2019-01-24T18:34:58.757Z,19.80
2019-01-24T18:40:05.426Z,21.00
2019-01-24T18:45:13.989Z,23.23
2019-01-24T18:50:22.503Z,20.60
2019-01-24T18:55:29.738Z,21.60
2019-01-24T19:00:38.639Z,20.30
2019-01-24T19:05:45.142Z,20.93
2019-01-24T19:10:51.203Z,21.80
2019-01-24T19:15:57.352Z,22.13
2019-01-24T19:21:03.664Z,20.97
2019-01-24T19:26:10.857Z,22.20
2019-01-24T19:31:16.996Z,21.20
2019-01-24T19:36:23.157Z,21.97
2019-01-24T19:41:29.291Z,21.33
2019-01-24T19:46:35.591Z,21.87
2019-01-24T19:51:41.550Z,22.43
2019-01-24T19:56:47.588Z,21.37
2019-01-24T20:01:54.043Z,21.60
2019-01-24T20:07:00.155Z,21.83
2019-01-24T20:12:06.696Z,22.83
2019-01-24T20:17:12.943Z,21.97
2019-01-24T20:22:19.434Z,22.03
2019-01-24T20:27:25.536Z,24.00
2019-01-24T20:32:31.881Z,24.43
2019-01-24T20:37:38.004Z,23.70
2019-01-24T20:42:44.083Z,22.93
2019-01-24T20:47:50.168Z,24.13
2019-01-24T20:52:56.420Z,23.67
2019-01-24T20:58:02.688Z,24.13
2019-01-24T21:03:08.771Z,31.67
2019-01-24T21:08:15.095Z,25.57
2019-01-24T21:13:21.388Z,24.70
2019-01-24T21:18:27.500Z,24.30
2019-01-24T21:23:33.760Z,23.57
2019-01-24T21:28:39.846Z,25.27
2019-01-24T21:33:46.179Z,26.27
2019-01-24T21:38:52.352Z,28.10
2019-01-24T21:43:58.508Z,25.93
2019-01-24T21:49:04.933Z,27.73
2019-01-24T21:54:11.181Z,27.07
2019-01-24T21:59:17.235Z,26.50
2019-01-24T22:04:23.403Z,25.70
2019-01-24T22:09:29.604Z,25.40
2019-01-24T22:14:35.742Z,23.73
2019-01-24T22:19:42.717Z,25.90
2019-01-24T22:24:48.817Z,24.60
2019-01-24T22:29:54.871Z,25.83
2019-01-24T22:35:00.860Z,25.80
2019-01-24T22:40:08.421Z,25.87
2019-01-24T22:45:20.716Z,25.30
2019-01-24T22:50:26.864Z,26.40
2019-01-24T22:55:32.944Z,25.97
2019-01-24T23:01:01.444Z,26.13
2019-01-24T23:06:07.613Z,25.50
2019-01-24T23:11:13.811Z,24.30
2019-01-24T23:16:19.970Z,25.03
2019-01-24T23:21:26.272Z,25.73
2019-01-24T23:26:32.313Z,24.43
2019-01-24T23:31:38.519Z,24.27
2019-01-24T23:36:44.680Z,24.30
2019-01-24T23:41:50.952Z,23.70
2019-01-24T23:46:57.029Z,24.97
2019-01-24T23:52:03.326Z,26.47
2019-01-24T23:57:09.513Z,23.23
